sensor_id;sensor_type;location;lat;lon;timestamp;temperature;humidity
39665;DHT22;26679;50.872;4.332;2022-12-18T00:01:29;0.20;99.90
39665;DHT22;26679;50.872;4.332;2022-12-18T00:03:56;0.20;99.90
39665;DHT22;26679;50.872;4.332;2022-12-18T00:06:24;0.20;99.90
39665;DHT22;26679;50.872;4.332;2022-12-18T00:08:53;1.30;99.90
39665;DHT22;26679;50.872;4.332;2022-12-18T00:11:20;0.30;99.90
39665;DHT22;26679;50.872;4.332;2022-12-18T00:13:46;0.20;99.90
39665;DHT22;26679;50.872;4.332;2022-12-18T00:16:13;0.90;99.90
39665;DHT22;26679;50.872;4.332;2022-12-18T00:18:39;0.30;99.90
39665;DHT22;26679;50.872;4.332;2022-12-18T00:21:06;0.20;99.90
39665;DHT22;26679;50.872;4.332;2022-12-18T00:23:32;0.10;99.90
39665;DHT22;26679;50.872;4.332;2022-12-18T00:25:58;0.60;99.90
39665;DHT22;26679;50.872;4.332;2022-12-18T00:28:24;0.20;99.90
39665;DHT22;26679;50.872;4.332;2022-12-18T00:30:49;0.20;99.90
39665;DHT22;26679;50.872;4.332;2022-12-18T00:33:17;0.10;99.90
39665;DHT22;26679;50.872;4.332;2022-12-18T00:35:42;0.20;99.90
39665;DHT22;26679;50.872;4.332;2022-12-18T00:38:08;0.20;99.90
39665;DHT22;26679;50.872;4.332;2022-12-18T00:40:33;0.00;99.90
39665;DHT22;26679;50.872;4.332;2022-12-18T00:42:59;-0.10;99.90
39665;DHT22;26679;50.872;4.332;2022-12-18T00:45:25;-0.20;99.90
39665;DHT22;26679;50.872;4.332;2022-12-18T00:47:51;-0.30;99.90
39665;DHT22;26679;50.872;4.332;2022-12-18T00:50:16;-0.40;99.90
39665;DHT22;26679;50.872;4.332;2022-12-18T00:52:42;-0.40;99.90
39665;DHT22;26679;50.872;4.332;2022-12-18T00:55:08;-0.40;99.90
39665;DHT22;26679;50.872;4.332;2022-12-18T00:57:33;-0.40;99.90
39665;DHT22;26679;50.872;4.332;2022-12-18T00:59:59;-0.30;99.90
39665;DHT22;26679;50.872;4.332;2022-12-18T01:02:24;-0.30;99.90
39665;DHT22;26679;50.872;4.332;2022-12-18T01:04:50;-0.20;99.90
39665;DHT22;26679;50.872;4.332;2022-12-18T01:07:15;-0.20;99.90
39665;DHT22;26679;50.872;4.332;2022-12-18T01:09:41;0.00;99.90
39665;DHT22;26679;50.872;4.332;2022-12-18T01:12:06;-0.10;99.90
39665;DHT22;26679;50.872;4.332;2022-12-18T01:14:32;0.00;99.90
39665;DHT22;26679;50.872;4.332;2022-12-18T01:16:57;0.00;99.90
39665;DHT22;26679;50.872;4.332;2022-12-18T01:19:23;-0.10;99.90
39665;DHT22;26679;50.872;4.332;2022-12-18T01:21:49;0.90;99.90
39665;DHT22;26679;50.872;4.332;2022-12-18T01:24:14;-0.10;99.90
39665;DHT22;26679;50.872;4.332;2022-12-18T01:26:40;-0.10;99.90
39665;DHT22;26679;50.872;4.332;2022-12-18T01:29:05;-0.10;99.90
39665;DHT22;26679;50.872;4.332;2022-12-18T01:31:32;0.00;99.90
39665;DHT22;26679;50.872;4.332;2022-12-18T01:34:00;0.00;99.90
39665;DHT22;26679;50.872;4.332;2022-12-18T01:36:27;0.10;99.90
39665;DHT22;26679;50.872;4.332;2022-12-18T01:38:52;0.00;99.90
39665;DHT22;26679;50.872;4.332;2022-12-18T01:41:23;-0.10;99.90
39665;DHT22;26679;50.872;4.332;2022-12-18T01:43:51;-0.10;99.90
39665;DHT22;26679;50.872;4.332;2022-12-18T01:46:18;-0.10;99.90
39665;DHT22;26679;50.872;4.332;2022-12-18T01:48:45;-0.20;99.90
39665;DHT22;26679;50.872;4.332;2022-12-18T01:51:11;0.70;99.90
39665;DHT22;26679;50.872;4.332;2022-12-18T01:53:38;-0.30;99.90
39665;DHT22;26679;50.872;4.332;2022-12-18T01:56:04;-0.20;99.90
39665;DHT22;26679;50.872;4.332;2022-12-18T01:58:32;-0.20;99.90
39665;DHT22;26679;50.872;4.332;2022-12-18T02:01:00;-0.30;99.90
39665;DHT22;26679;50.872;4.332;2022-12-18T02:03:25;-0.20;99.90
39665;DHT22;26679;50.872;4.332;2022-12-18T02:13:32;-0.20;99.90
39665;DHT22;26679;50.872;4.332;2022-12-18T02:18:41;-0.30;99.90
39665;DHT22;26679;50.872;4.332;2022-12-18T02:21:11;-0.30;99.90
39665;DHT22;26679;50.872;4.332;2022-12-18T02:31:18;-0.30;99.90
39665;DHT22;26679;50.872;4.332;2022-12-18T02:33:46;-0.30;99.90
39665;DHT22;26679;50.872;4.332;2022-12-18T02:36:13;-0.10;99.90
39665;DHT22;26679;50.872;4.332;2022-12-18T02:38:41;-0.30;99.90
39665;DHT22;26679;50.872;4.332;2022-12-18T02:41:07;-0.30;99.90
39665;DHT22;26679;50.872;4.332;2022-12-18T02:43:32;-0.30;99.90
39665;DHT22;26679;50.872;4.332;2022-12-18T02:45:59;-0.30;99.90
39665;DHT22;26679;50.872;4.332;2022-12-18T02:48:29;-0.30;99.90
39665;DHT22;26679;50.872;4.332;2022-12-18T02:50:59;-0.30;99.90
39665;DHT22;26679;50.872;4.332;2022-12-18T02:53:30;-0.30;99.90
39665;DHT22;26679;50.872;4.332;2022-12-18T02:56:07;-0.40;99.90
39665;DHT22;26679;50.872;4.332;2022-12-18T03:03:30;-0.30;99.90
39665;DHT22;26679;50.872;4.332;2022-12-18T03:06:00;-0.40;99.90
39665;DHT22;26679;50.872;4.332;2022-12-18T03:08:28;-0.40;99.90
39665;DHT22;26679;50.872;4.332;2022-12-18T03:10:56;-0.40;99.90
39665;DHT22;26679;50.872;4.332;2022-12-18T03:13:25;-0.50;99.90
39665;DHT22;26679;50.872;4.332;2022-12-18T03:15:54;-0.50;99.90
39665;DHT22;26679;50.872;4.332;2022-12-18T03:18:23;-0.60;99.90
39665;DHT22;26679;50.872;4.332;2022-12-18T03:20:50;-0.60;99.90
39665;DHT22;26679;50.872;4.332;2022-12-18T03:23:18;-0.40;99.90
39665;DHT22;26679;50.872;4.332;2022-12-18T03:25:44;0.40;99.90
39665;DHT22;26679;50.872;4.332;2022-12-18T03:28:13;-0.40;99.90
39665;DHT22;26679;50.872;4.332;2022-12-18T03:30:40;-0.70;99.90
39665;DHT22;26679;50.872;4.332;2022-12-18T03:35:44;-0.70;99.90
39665;DHT22;26679;50.872;4.332;2022-12-18T03:38:10;-0.60;99.90
39665;DHT22;26679;50.872;4.332;2022-12-18T03:45:51;-0.70;99.90
39665;DHT22;26679;50.872;4.332;2022-12-18T03:48:27;-0.70;99.90
39665;DHT22;26679;50.872;4.332;2022-12-18T03:50:59;-0.70;99.90
39665;DHT22;26679;50.872;4.332;2022-12-18T03:56:02;-0.70;99.90
39665;DHT22;26679;50.872;4.332;2022-12-18T03:58:29;-0.80;99.90
39665;DHT22;26679;50.872;4.332;2022-12-18T04:00:58;-0.80;99.90
39665;DHT22;26679;50.872;4.332;2022-12-18T04:03:25;-0.80;99.90
39665;DHT22;26679;50.872;4.332;2022-12-18T04:05:51;-0.90;99.90
39665;DHT22;26679;50.872;4.332;2022-12-18T04:08:17;-0.90;99.90
39665;DHT22;26679;50.872;4.332;2022-12-18T04:10:43;-0.90;99.90
39665;DHT22;26679;50.872;4.332;2022-12-18T04:13:09;0.10;99.90
39665;DHT22;26679;50.872;4.332;2022-12-18T04:15:34;-0.80;99.90
39665;DHT22;26679;50.872;4.332;2022-12-18T04:18:01;-0.80;99.90
39665;DHT22;26679;50.872;4.332;2022-12-18T04:20:27;-0.80;99.90
39665;DHT22;26679;50.872;4.332;2022-12-18T04:22:52;-0.70;99.90
39665;DHT22;26679;50.872;4.332;2022-12-18T04:25:18;-0.70;99.90
39665;DHT22;26679;50.872;4.332;2022-12-18T04:27:43;-0.60;99.90
39665;DHT22;26679;50.872;4.332;2022-12-18T04:30:09;-0.70;99.90
39665;DHT22;26679;50.872;4.332;2022-12-18T04:32:36;-0.70;99.90
39665;DHT22;26679;50.872;4.332;2022-12-18T04:35:02;-0.70;99.90
39665;DHT22;26679;50.872;4.332;2022-12-18T04:37:29;-0.80;99.90
39665;DHT22;26679;50.872;4.332;2022-12-18T04:39:55;-0.90;99.90
39665;DHT22;26679;50.872;4.332;2022-12-18T04:42:20;-0.90;99.90
39665;DHT22;26679;50.872;4.332;2022-12-18T04:44:46;-0.80;99.90
39665;DHT22;26679;50.872;4.332;2022-12-18T04:47:11;-0.80;99.90
39665;DHT22;26679;50.872;4.332;2022-12-18T04:49:37;-0.70;99.90
39665;DHT22;26679;50.872;4.332;2022-12-18T04:52:02;-0.10;99.90
39665;DHT22;26679;50.872;4.332;2022-12-18T04:54:28;-0.70;99.90
39665;DHT22;26679;50.872;4.332;2022-12-18T04:56:53;-0.70;99.90
39665;DHT22;26679;50.872;4.332;2022-12-18T04:59:18;-0.70;99.90
39665;DHT22;26679;50.872;4.332;2022-12-18T05:01:44;-0.80;99.90
39665;DHT22;26679;50.872;4.332;2022-12-18T05:04:10;-0.20;99.90
39665;DHT22;26679;50.872;4.332;2022-12-18T05:06:36;-0.70;99.90
39665;DHT22;26679;50.872;4.332;2022-12-18T05:09:02;-0.70;99.90
39665;DHT22;26679;50.872;4.332;2022-12-18T05:11:31;-0.70;99.90
39665;DHT22;26679;50.872;4.332;2022-12-18T05:13:56;-0.70;99.90
39665;DHT22;26679;50.872;4.332;2022-12-18T05:16:22;-0.70;99.90
39665;DHT22;26679;50.872;4.332;2022-12-18T05:18:47;-0.40;99.90
39665;DHT22;26679;50.872;4.332;2022-12-18T05:21:13;-0.90;99.90
39665;DHT22;26679;50.872;4.332;2022-12-18T05:23:38;-1.00;99.90
39665;DHT22;26679;50.872;4.332;2022-12-18T05:26:05;-1.00;99.90
39665;DHT22;26679;50.872;4.332;2022-12-18T05:28:31;-0.90;99.90
39665;DHT22;26679;50.872;4.332;2022-12-18T05:30:59;-0.90;99.90
39665;DHT22;26679;50.872;4.332;2022-12-18T05:33:29;-0.80;99.90
39665;DHT22;26679;50.872;4.332;2022-12-18T05:35:57;-0.80;99.90
39665;DHT22;26679;50.872;4.332;2022-12-18T05:38:26;-0.80;99.90
39665;DHT22;26679;50.872;4.332;2022-12-18T05:40:55;-0.80;99.90
39665;DHT22;26679;50.872;4.332;2022-12-18T05:43:22;-0.80;99.90
39665;DHT22;26679;50.872;4.332;2022-12-18T05:45:48;-0.80;99.90
39665;DHT22;26679;50.872;4.332;2022-12-18T05:48:14;-0.80;99.90
39665;DHT22;26679;50.872;4.332;2022-12-18T05:50:41;-0.80;99.90
39665;DHT22;26679;50.872;4.332;2022-12-18T05:53:07;-0.80;99.90
39665;DHT22;26679;50.872;4.332;2022-12-18T05:55:33;-0.80;99.90
39665;DHT22;26679;50.872;4.332;2022-12-18T05:57:58;-0.80;99.90
39665;DHT22;26679;50.872;4.332;2022-12-18T06:00:29;-0.80;99.90
39665;DHT22;26679;50.872;4.332;2022-12-18T06:02:55;-0.80;99.90
39665;DHT22;26679;50.872;4.332;2022-12-18T06:05:22;-0.90;99.90
39665;DHT22;26679;50.872;4.332;2022-12-18T06:07:48;-0.90;99.90
39665;DHT22;26679;50.872;4.332;2022-12-18T06:10:14;-1.10;99.90
39665;DHT22;26679;50.872;4.332;2022-12-18T06:12:39;0.30;99.90
39665;DHT22;26679;50.872;4.332;2022-12-18T06:15:05;-0.90;99.90
39665;DHT22;26679;50.872;4.332;2022-12-18T06:17:31;-0.80;99.90
39665;DHT22;26679;50.872;4.332;2022-12-18T06:19:57;-0.80;99.90
39665;DHT22;26679;50.872;4.332;2022-12-18T06:22:22;-0.70;99.90
39665;DHT22;26679;50.872;4.332;2022-12-18T06:24:48;-0.60;99.90
39665;DHT22;26679;50.872;4.332;2022-12-18T06:27:13;-0.30;99.90
39665;DHT22;26679;50.872;4.332;2022-12-18T06:29:39;-0.80;99.90
39665;DHT22;26679;50.872;4.332;2022-12-18T06:32:04;-0.60;99.90
39665;DHT22;26679;50.872;4.332;2022-12-18T06:34:31;-1.00;99.90
39665;DHT22;26679;50.872;4.332;2022-12-18T06:36:57;-1.00;99.90
39665;DHT22;26679;50.872;4.332;2022-12-18T06:39:23;-0.90;99.90
39665;DHT22;26679;50.872;4.332;2022-12-18T06:41:49;-0.80;99.90
39665;DHT22;26679;50.872;4.332;2022-12-18T06:44:15;-0.70;99.90
39665;DHT22;26679;50.872;4.332;2022-12-18T06:46:41;-0.70;99.90
39665;DHT22;26679;50.872;4.332;2022-12-18T06:49:06;-0.70;99.90
39665;DHT22;26679;50.872;4.332;2022-12-18T06:51:34;-0.70;99.90
39665;DHT22;26679;50.872;4.332;2022-12-18T06:53:59;-0.70;99.90
39665;DHT22;26679;50.872;4.332;2022-12-18T06:56:25;-0.70;99.90
39665;DHT22;26679;50.872;4.332;2022-12-18T06:58:53;-0.70;99.90
39665;DHT22;26679;50.872;4.332;2022-12-18T07:01:18;-0.70;99.90
39665;DHT22;26679;50.872;4.332;2022-12-18T07:03:44;-0.40;99.90
39665;DHT22;26679;50.872;4.332;2022-12-18T07:06:13;-0.90;99.90
39665;DHT22;26679;50.872;4.332;2022-12-18T07:08:40;-0.90;99.90
39665;DHT22;26679;50.872;4.332;2022-12-18T07:11:05;-0.90;99.90
39665;DHT22;26679;50.872;4.332;2022-12-18T07:13:31;-0.90;99.90
39665;DHT22;26679;50.872;4.332;2022-12-18T07:16:07;-0.90;99.90
39665;DHT22;26679;50.872;4.332;2022-12-18T07:18:33;-0.90;99.90
39665;DHT22;26679;50.872;4.332;2022-12-18T07:21:02;-1.00;99.90
39665;DHT22;26679;50.872;4.332;2022-12-18T07:23:27;-0.90;99.90
39665;DHT22;26679;50.872;4.332;2022-12-18T07:25:53;-0.90;99.90
39665;DHT22;26679;50.872;4.332;2022-12-18T07:28:18;-0.90;99.90
39665;DHT22;26679;50.872;4.332;2022-12-18T07:30:44;-0.90;99.90
39665;DHT22;26679;50.872;4.332;2022-12-18T07:33:09;-0.80;99.90
39665;DHT22;26679;50.872;4.332;2022-12-18T07:35:35;-0.90;99.90
39665;DHT22;26679;50.872;4.332;2022-12-18T07:38:01;-0.90;99.90
39665;DHT22;26679;50.872;4.332;2022-12-18T07:40:27;-0.90;99.90
39665;DHT22;26679;50.872;4.332;2022-12-18T07:42:52;-1.00;99.90
39665;DHT22;26679;50.872;4.332;2022-12-18T07:45:18;-1.10;99.90
39665;DHT22;26679;50.872;4.332;2022-12-18T07:47:43;-1.10;99.90
39665;DHT22;26679;50.872;4.332;2022-12-18T07:50:09;-1.00;99.90
39665;DHT22;26679;50.872;4.332;2022-12-18T07:52:35;-1.00;99.90
39665;DHT22;26679;50.872;4.332;2022-12-18T07:55:00;-1.00;99.90
39665;DHT22;26679;50.872;4.332;2022-12-18T07:57:26;-0.70;99.90
39665;DHT22;26679;50.872;4.332;2022-12-18T07:59:51;-1.00;99.90
39665;DHT22;26679;50.872;4.332;2022-12-18T08:02:17;-0.90;99.90
39665;DHT22;26679;50.872;4.332;2022-12-18T08:04:42;-0.90;99.90
39665;DHT22;26679;50.872;4.332;2022-12-18T08:07:08;-0.10;99.90
39665;DHT22;26679;50.872;4.332;2022-12-18T08:09:33;-0.90;99.90
39665;DHT22;26679;50.872;4.332;2022-12-18T08:11:59;-0.90;99.90
39665;DHT22;26679;50.872;4.332;2022-12-18T08:14:24;-0.90;99.90
39665;DHT22;26679;50.872;4.332;2022-12-18T08:16:51;-0.90;99.90
39665;DHT22;26679;50.872;4.332;2022-12-18T08:19:17;-0.80;99.90
39665;DHT22;26679;50.872;4.332;2022-12-18T08:21:42;-0.80;99.90
39665;DHT22;26679;50.872;4.332;2022-12-18T08:24:08;-0.80;99.90
39665;DHT22;26679;50.872;4.332;2022-12-18T08:26:34;-0.70;99.90
39665;DHT22;26679;50.872;4.332;2022-12-18T08:28:59;-0.70;99.90
39665;DHT22;26679;50.872;4.332;2022-12-18T08:31:26;-0.70;99.90
39665;DHT22;26679;50.872;4.332;2022-12-18T08:33:52;-0.70;99.90
39665;DHT22;26679;50.872;4.332;2022-12-18T08:36:18;0.80;99.90
39665;DHT22;26679;50.872;4.332;2022-12-18T08:38:45;-0.80;99.90
39665;DHT22;26679;50.872;4.332;2022-12-18T08:41:11;-0.70;99.90
39665;DHT22;26679;50.872;4.332;2022-12-18T08:43:36;-0.70;99.90
39665;DHT22;26679;50.872;4.332;2022-12-18T08:46:13;-0.60;99.90
39665;DHT22;26679;50.872;4.332;2022-12-18T08:48:38;-0.60;99.90
39665;DHT22;26679;50.872;4.332;2022-12-18T08:51:04;-0.40;99.90
39665;DHT22;26679;50.872;4.332;2022-12-18T08:53:30;-0.40;99.90
39665;DHT22;26679;50.872;4.332;2022-12-18T08:55:58;-0.40;99.90
39665;DHT22;26679;50.872;4.332;2022-12-18T08:58:24;-0.30;99.90
39665;DHT22;26679;50.872;4.332;2022-12-18T09:00:49;-0.10;99.90
39665;DHT22;26679;50.872;4.332;2022-12-18T09:03:16;0.10;99.90
39665;DHT22;26679;50.872;4.332;2022-12-18T09:05:42;0.10;99.90
39665;DHT22;26679;50.872;4.332;2022-12-18T09:08:08;0.30;99.90
39665;DHT22;26679;50.872;4.332;2022-12-18T09:10:33;0.30;99.90
39665;DHT22;26679;50.872;4.332;2022-12-18T09:12:59;0.40;99.90
39665;DHT22;26679;50.872;4.332;2022-12-18T09:15:25;0.60;99.90
39665;DHT22;26679;50.872;4.332;2022-12-18T09:17:50;0.70;99.90
39665;DHT22;26679;50.872;4.332;2022-12-18T09:20:18;0.60;99.90
39665;DHT22;26679;50.872;4.332;2022-12-18T09:22:43;0.70;99.90
39665;DHT22;26679;50.872;4.332;2022-12-18T09:25:09;0.80;99.90
39665;DHT22;26679;50.872;4.332;2022-12-18T09:27:35;0.90;99.90
39665;DHT22;26679;50.872;4.332;2022-12-18T09:30:01;1.00;99.90
39665;DHT22;26679;50.872;4.332;2022-12-18T09:32:26;1.00;99.90
39665;DHT22;26679;50.872;4.332;2022-12-18T09:34:52;1.60;99.90
39665;DHT22;26679;50.872;4.332;2022-12-18T09:37:17;0.80;99.90
39665;DHT22;26679;50.872;4.332;2022-12-18T09:39:43;0.90;99.90
39665;DHT22;26679;50.872;4.332;2022-12-18T09:42:12;1.00;99.90
39665;DHT22;26679;50.872;4.332;2022-12-18T09:44:41;1.10;99.90
39665;DHT22;26679;50.872;4.332;2022-12-18T09:47:12;1.20;99.90
39665;DHT22;26679;50.872;4.332;2022-12-18T09:49:41;1.20;99.90
39665;DHT22;26679;50.872;4.332;2022-12-18T09:54:45;1.30;99.90
39665;DHT22;26679;50.872;4.332;2022-12-18T09:57:15;1.30;99.90
39665;DHT22;26679;50.872;4.332;2022-12-18T09:59:42;1.50;99.90
39665;DHT22;26679;50.872;4.332;2022-12-18T10:02:18;1.50;99.90
39665;DHT22;26679;50.872;4.332;2022-12-18T10:04:45;1.70;99.90
39665;DHT22;26679;50.872;4.332;2022-12-18T10:07:19;1.80;99.90
39665;DHT22;26679;50.872;4.332;2022-12-18T10:17:44;1.80;99.90
39665;DHT22;26679;50.872;4.332;2022-12-18T10:27:54;1.70;99.90
39665;DHT22;26679;50.872;4.332;2022-12-18T10:30:22;1.80;99.90
39665;DHT22;26679;50.872;4.332;2022-12-18T10:32:47;1.90;99.90
39665;DHT22;26679;50.872;4.332;2022-12-18T10:35:20;1.90;99.90
39665;DHT22;26679;50.872;4.332;2022-12-18T10:40:23;2.00;99.90
39665;DHT22;26679;50.872;4.332;2022-12-18T10:45:25;2.30;99.90
39665;DHT22;26679;50.872;4.332;2022-12-18T10:47:51;2.20;99.90
39665;DHT22;26679;50.872;4.332;2022-12-18T10:50:26;2.20;99.90
39665;DHT22;26679;50.872;4.332;2022-12-18T10:52:54;2.30;99.90
39665;DHT22;26679;50.872;4.332;2022-12-18T10:55:19;3.50;99.90
39665;DHT22;26679;50.872;4.332;2022-12-18T10:57:45;2.70;99.90
39665;DHT22;26679;50.872;4.332;2022-12-18T11:02:47;2.50;99.80
39665;DHT22;26679;50.872;4.332;2022-12-18T11:07:49;2.30;99.90
39665;DHT22;26679;50.872;4.332;2022-12-18T11:10:19;2.50;99.90
39665;DHT22;26679;50.872;4.332;2022-12-18T11:12:45;2.60;99.90
39665;DHT22;26679;50.872;4.332;2022-12-18T11:17:48;2.80;99.50
39665;DHT22;26679;50.872;4.332;2022-12-18T11:25:27;2.30;99.90
39665;DHT22;26679;50.872;4.332;2022-12-18T11:30:31;2.20;99.90
39665;DHT22;26679;50.872;4.332;2022-12-18T11:32:59;2.40;99.90
39665;DHT22;26679;50.872;4.332;2022-12-18T11:35:35;2.40;99.90
39665;DHT22;26679;50.872;4.332;2022-12-18T11:38:04;2.40;99.90
39665;DHT22;26679;50.872;4.332;2022-12-18T11:40:36;2.20;99.90
39665;DHT22;26679;50.872;4.332;2022-12-18T11:45:43;1.90;99.90
39665;DHT22;26679;50.872;4.332;2022-12-18T11:50:52;3.00;99.90
39665;DHT22;26679;50.872;4.332;2022-12-18T11:53:19;2.00;99.90
39665;DHT22;26679;50.872;4.332;2022-12-18T12:00:52;2.40;99.90
39665;DHT22;26679;50.872;4.332;2022-12-18T12:11:00;2.40;99.90
39665;DHT22;26679;50.872;4.332;2022-12-18T12:13:39;2.40;99.90
39665;DHT22;26679;50.872;4.332;2022-12-18T12:16:15;2.50;99.90
39665;DHT22;26679;50.872;4.332;2022-12-18T12:23:54;2.60;99.90
39665;DHT22;26679;50.872;4.332;2022-12-18T12:39:22;2.90;99.90
39665;DHT22;26679;50.872;4.332;2022-12-18T12:41:49;2.80;99.90
39665;DHT22;26679;50.872;4.332;2022-12-18T12:44:28;2.90;99.90
39665;DHT22;26679;50.872;4.332;2022-12-18T12:46:56;3.30;99.90
39665;DHT22;26679;50.872;4.332;2022-12-18T12:49:25;3.10;99.90
39665;DHT22;26679;50.872;4.332;2022-12-18T12:52:35;2.90;99.90
39665;DHT22;26679;50.872;4.332;2022-12-18T12:54:40;2.90;99.90
39665;DHT22;26679;50.872;4.332;2022-12-18T13:04:59;2.70;99.90
39665;DHT22;26679;50.872;4.332;2022-12-18T13:07:37;2.90;99.90
39665;DHT22;26679;50.872;4.332;2022-12-18T13:15:24;3.10;99.90
39665;DHT22;26679;50.872;4.332;2022-12-18T13:18:12;3.00;99.90
39665;DHT22;26679;50.872;4.332;2022-12-18T13:25:41;2.90;99.90
39665;DHT22;26679;50.872;4.332;2022-12-18T13:28:10;2.80;99.90
39665;DHT22;26679;50.872;4.332;2022-12-18T13:30:42;2.70;99.90
39665;DHT22;26679;50.872;4.332;2022-12-18T13:35:41;2.70;99.90
39665;DHT22;26679;50.872;4.332;2022-12-18T13:43:30;2.60;99.90
39665;DHT22;26679;50.872;4.332;2022-12-18T13:48:25;2.70;99.90
39665;DHT22;26679;50.872;4.332;2022-12-18T13:56:05;2.60;99.90
39665;DHT22;26679;50.872;4.332;2022-12-18T13:58:31;2.60;99.90
39665;DHT22;26679;50.872;4.332;2022-12-18T14:00:59;2.70;99.90
39665;DHT22;26679;50.872;4.332;2022-12-18T14:03:26;2.80;99.90
39665;DHT22;26679;50.872;4.332;2022-12-18T14:05:52;2.70;99.90
39665;DHT22;26679;50.872;4.332;2022-12-18T14:08:19;3.90;99.90
39665;DHT22;26679;50.872;4.332;2022-12-18T14:10:46;2.50;99.90
39665;DHT22;26679;50.872;4.332;2022-12-18T14:13:15;2.50;99.90
39665;DHT22;26679;50.872;4.332;2022-12-18T14:15:42;3.30;99.90
39665;DHT22;26679;50.872;4.332;2022-12-18T14:20:45;2.70;99.90
39665;DHT22;26679;50.872;4.332;2022-12-18T14:25:48;2.60;99.90
39665;DHT22;26679;50.872;4.332;2022-12-18T14:28:14;2.50;99.90
39665;DHT22;26679;50.872;4.332;2022-12-18T14:30:41;2.50;99.90
39665;DHT22;26679;50.872;4.332;2022-12-18T14:40:46;2.20;99.90
39665;DHT22;26679;50.872;4.332;2022-12-18T14:43:12;2.40;99.90
39665;DHT22;26679;50.872;4.332;2022-12-18T14:45:42;2.30;99.90
39665;DHT22;26679;50.872;4.332;2022-12-18T14:48:08;2.20;99.90
39665;DHT22;26679;50.872;4.332;2022-12-18T14:50:37;2.20;99.90
39665;DHT22;26679;50.872;4.332;2022-12-18T14:53:03;2.20;99.90
39665;DHT22;26679;50.872;4.332;2022-12-18T14:55:28;2.20;99.90
39665;DHT22;26679;50.872;4.332;2022-12-18T14:57:54;2.10;99.90
39665;DHT22;26679;50.872;4.332;2022-12-18T15:00:21;2.00;99.90
39665;DHT22;26679;50.872;4.332;2022-12-18T15:02:50;2.10;99.90
39665;DHT22;26679;50.872;4.332;2022-12-18T15:07:44;2.40;99.90
39665;DHT22;26679;50.872;4.332;2022-12-18T15:12:37;2.30;99.90
39665;DHT22;26679;50.872;4.332;2022-12-18T15:15:04;2.30;99.90
39665;DHT22;26679;50.872;4.332;2022-12-18T15:17:30;2.40;99.90
39665;DHT22;26679;50.872;4.332;2022-12-18T15:20:00;2.50;99.90
39665;DHT22;26679;50.872;4.332;2022-12-18T15:22:29;2.50;99.90
39665;DHT22;26679;50.872;4.332;2022-12-18T15:24:56;2.60;99.90
39665;DHT22;26679;50.872;4.332;2022-12-18T15:27:27;2.40;99.90
39665;DHT22;26679;50.872;4.332;2022-12-18T15:32:29;2.30;99.90
39665;DHT22;26679;50.872;4.332;2022-12-18T15:37:31;2.30;99.90
39665;DHT22;26679;50.872;4.332;2022-12-18T15:39:56;2.50;99.90
39665;DHT22;26679;50.872;4.332;2022-12-18T15:42:22;2.60;99.90
39665;DHT22;26679;50.872;4.332;2022-12-18T15:44:58;2.40;99.90
39665;DHT22;26679;50.872;4.332;2022-12-18T15:47:24;2.60;99.90
39665;DHT22;26679;50.872;4.332;2022-12-18T15:49:49;2.50;99.90
39665;DHT22;26679;50.872;4.332;2022-12-18T15:52:15;2.30;99.90
39665;DHT22;26679;50.872;4.332;2022-12-18T15:54:51;2.30;99.90
39665;DHT22;26679;50.872;4.332;2022-12-18T15:57:26;3.70;99.90
39665;DHT22;26679;50.872;4.332;2022-12-18T15:59:53;2.30;99.90
39665;DHT22;26679;50.872;4.332;2022-12-18T16:02:19;2.70;99.90
39665;DHT22;26679;50.872;4.332;2022-12-18T16:04:45;2.20;99.90
39665;DHT22;26679;50.872;4.332;2022-12-18T16:07:11;2.60;99.90
39665;DHT22;26679;50.872;4.332;2022-12-18T16:09:37;2.40;99.90
39665;DHT22;26679;50.872;4.332;2022-12-18T16:12:04;2.40;99.90
39665;DHT22;26679;50.872;4.332;2022-12-18T16:14:30;2.40;99.90
39665;DHT22;26679;50.872;4.332;2022-12-18T16:17:03;2.40;99.90
39665;DHT22;26679;50.872;4.332;2022-12-18T16:19:28;2.40;99.90
39665;DHT22;26679;50.872;4.332;2022-12-18T16:21:55;2.50;99.90
39665;DHT22;26679;50.872;4.332;2022-12-18T16:24:25;2.60;99.90
39665;DHT22;26679;50.872;4.332;2022-12-18T16:26:51;2.70;99.90
39665;DHT22;26679;50.872;4.332;2022-12-18T16:29:17;2.50;99.90
39665;DHT22;26679;50.872;4.332;2022-12-18T16:31:43;2.50;99.90
39665;DHT22;26679;50.872;4.332;2022-12-18T16:36:37;2.60;99.90
39665;DHT22;26679;50.872;4.332;2022-12-18T16:39:04;2.40;99.90
39665;DHT22;26679;50.872;4.332;2022-12-18T16:41:29;2.40;99.90
39665;DHT22;26679;50.872;4.332;2022-12-18T16:43:58;2.30;99.90
39665;DHT22;26679;50.872;4.332;2022-12-18T16:46:24;2.40;99.90
39665;DHT22;26679;50.872;4.332;2022-12-18T16:48:49;2.50;99.90
39665;DHT22;26679;50.872;4.332;2022-12-18T16:51:15;2.70;99.90
39665;DHT22;26679;50.872;4.332;2022-12-18T16:53:41;2.60;99.90
39665;DHT22;26679;50.872;4.332;2022-12-18T16:56:06;3.50;99.90
39665;DHT22;26679;50.872;4.332;2022-12-18T16:58:32;2.70;99.90
39665;DHT22;26679;50.872;4.332;2022-12-18T17:00:58;2.50;99.90
39665;DHT22;26679;50.872;4.332;2022-12-18T17:03:24;2.40;99.90
39665;DHT22;26679;50.872;4.332;2022-12-18T17:05:51;2.40;99.90
39665;DHT22;26679;50.872;4.332;2022-12-18T17:08:16;2.40;99.90
39665;DHT22;26679;50.872;4.332;2022-12-18T17:10:42;3.20;99.90
39665;DHT22;26679;50.872;4.332;2022-12-18T17:13:07;2.70;99.90
39665;DHT22;26679;50.872;4.332;2022-12-18T17:15:36;2.60;99.90
39665;DHT22;26679;50.872;4.332;2022-12-18T17:18:01;2.80;99.90
39665;DHT22;26679;50.872;4.332;2022-12-18T17:20:29;2.70;99.90
39665;DHT22;26679;50.872;4.332;2022-12-18T17:22:54;2.70;99.90
39665;DHT22;26679;50.872;4.332;2022-12-18T17:25:23;2.60;99.90
39665;DHT22;26679;50.872;4.332;2022-12-18T17:27:49;2.60;99.90
39665;DHT22;26679;50.872;4.332;2022-12-18T17:30:14;3.00;99.90
39665;DHT22;26679;50.872;4.332;2022-12-18T17:32:40;2.50;99.90
39665;DHT22;26679;50.872;4.332;2022-12-18T17:35:06;2.40;99.90
39665;DHT22;26679;50.872;4.332;2022-12-18T17:37:31;2.40;99.90
39665;DHT22;26679;50.872;4.332;2022-12-18T17:39:57;2.40;99.90
39665;DHT22;26679;50.872;4.332;2022-12-18T17:42:22;2.60;99.90
39665;DHT22;26679;50.872;4.332;2022-12-18T17:44:48;2.40;99.90
39665;DHT22;26679;50.872;4.332;2022-12-18T17:47:13;2.30;99.90
39665;DHT22;26679;50.872;4.332;2022-12-18T17:49:39;2.90;99.90
39665;DHT22;26679;50.872;4.332;2022-12-18T17:52:04;2.00;99.90
39665;DHT22;26679;50.872;4.332;2022-12-18T17:54:30;2.00;99.90
39665;DHT22;26679;50.872;4.332;2022-12-18T17:56:55;2.00;99.90
39665;DHT22;26679;50.872;4.332;2022-12-18T17:59:21;1.90;99.90
39665;DHT22;26679;50.872;4.332;2022-12-18T18:01:48;1.90;99.90
39665;DHT22;26679;50.872;4.332;2022-12-18T18:04:14;1.80;99.90
39665;DHT22;26679;50.872;4.332;2022-12-18T18:06:39;1.80;99.90
39665;DHT22;26679;50.872;4.332;2022-12-18T18:09:08;1.80;99.90
39665;DHT22;26679;50.872;4.332;2022-12-18T18:11:34;1.80;99.90
39665;DHT22;26679;50.872;4.332;2022-12-18T18:14:12;1.90;99.90
39665;DHT22;26679;50.872;4.332;2022-12-18T18:16:40;1.90;99.90
39665;DHT22;26679;50.872;4.332;2022-12-18T18:19:07;2.00;99.90
39665;DHT22;26679;50.872;4.332;2022-12-18T18:21:33;2.00;99.90
39665;DHT22;26679;50.872;4.332;2022-12-18T18:24:00;1.90;99.90
39665;DHT22;26679;50.872;4.332;2022-12-18T18:26:26;2.80;99.90